createdAt,value
2022-12-18T00:00:14.679Z,94.83
2022-12-18T00:01:25.790Z,94.81
2022-12-18T00:02:27.571Z,94.97
2022-12-18T00:03:29.536Z,95.19
2022-12-18T00:04:31.749Z,95.08
2022-12-18T00:05:33.453Z,94.75
2022-12-18T00:06:36.721Z,94.23
2022-12-18T00:07:39.205Z,94.18
2022-12-18T00:08:42.834Z,94.34
2022-12-18T00:09:44.520Z,94.53
2022-12-18T00:10:46.737Z,93.94
2022-12-18T00:11:48.805Z,93.62
2022-12-18T00:12:50.479Z,93.51
2022-12-18T00:13:54.013Z,93.25
2022-12-18T00:14:55.703Z,92.83
2022-12-18T00:16:03.582Z,92.94
2022-12-18T00:17:05.489Z,92.81
2022-12-18T00:18:07.474Z,92.73
2022-12-18T00:19:11.140Z,92.89
2022-12-18T00:20:12.996Z,92.74
2022-12-18T00:21:15.590Z,92.74
2022-12-18T00:22:17.274Z,92.79
2022-12-18T00:23:19.075Z,93.01
2022-12-18T00:24:20.745Z,93.32
2022-12-18T00:25:23.156Z,93.09
2022-12-18T00:26:28.893Z,93.05
2022-12-18T00:27:30.670Z,92.94
2022-12-18T00:28:32.576Z,92.91
2022-12-18T00:29:34.338Z,92.97
2022-12-18T00:30:36.156Z,92.85
2022-12-18T00:31:39.135Z,92.68
2022-12-18T00:32:41.358Z,92.48
2022-12-18T00:33:43.584Z,92.51
2022-12-18T00:34:45.386Z,92.42
2022-12-18T00:35:47.109Z,92.78
2022-12-18T00:36:49.237Z,92.76
2022-12-18T00:37:50.980Z,92.32
2022-12-18T00:38:54.698Z,92.38
2022-12-18T00:39:56.425Z,92.60
2022-12-18T00:40:58.265Z,93.10
2022-12-18T00:41:59.979Z,93.13
2022-12-18T00:43:01.683Z,93.27
2022-12-18T00:44:04.353Z,92.88
2022-12-18T00:45:12.122Z,93.28
2022-12-18T00:46:14.544Z,93.30
2022-12-18T00:47:16.253Z,93.04
2022-12-18T00:48:18.224Z,92.89
2022-12-18T00:49:21.072Z,92.56
2022-12-18T00:50:25.045Z,92.91
2022-12-18T00:51:27.234Z,92.73
2022-12-18T00:52:28.873Z,92.50
2022-12-18T00:53:30.615Z,93.02
2022-12-18T00:54:32.366Z,93.07
2022-12-18T00:55:34.067Z,93.32
2022-12-18T00:56:45.782Z,93.29
2022-12-18T00:57:53.041Z,93.28
2022-12-18T00:58:54.679Z,93.41
2022-12-18T00:59:56.658Z,93.59
2022-12-18T01:00:58.456Z,93.82
2022-12-18T01:02:00.227Z,93.82
2022-12-18T01:03:02.294Z,93.74
2022-12-18T01:04:04.947Z,93.79
2022-12-18T01:05:07.468Z,93.12
2022-12-18T01:06:12.012Z,92.71
2022-12-18T01:07:13.626Z,92.62
2022-12-18T01:08:15.343Z,92.44
2022-12-18T01:09:17.175Z,92.67
2022-12-18T01:10:19.149Z,92.38
2022-12-18T01:11:22.026Z,92.56
2022-12-18T01:12:23.836Z,92.42
2022-12-18T01:13:25.548Z,92.49
2022-12-18T01:14:27.559Z,92.47
2022-12-18T01:15:29.325Z,92.44
2022-12-18T01:16:31.082Z,92.35
2022-12-18T01:17:33.134Z,92.25
2022-12-18T01:18:34.771Z,92.08
2022-12-18T01:19:36.683Z,91.94
2022-12-18T01:20:39.319Z,91.78
2022-12-18T01:21:40.999Z,91.93
2022-12-18T01:22:43.038Z,91.84
2022-12-18T01:23:44.797Z,91.74
2022-12-18T01:24:46.496Z,91.77
2022-12-18T01:25:48.237Z,91.81
2022-12-18T01:26:49.990Z,91.80
2022-12-18T01:27:51.750Z,91.69
2022-12-18T01:28:55.437Z,91.67
2022-12-18T01:29:57.257Z,91.42
2022-12-18T01:30:59.078Z,91.26
2022-12-18T01:32:00.868Z,91.04
2022-12-18T01:33:02.808Z,91.36
2022-12-18T01:34:06.178Z,91.14
2022-12-18T01:35:08.521Z,91.47
2022-12-18T01:36:23.141Z,91.41
2022-12-18T01:37:25.288Z,91.38
2022-12-18T01:38:27.016Z,91.42
2022-12-18T01:39:28.782Z,91.37
2022-12-18T01:40:30.539Z,91.41
2022-12-18T01:41:34.004Z,91.58
2022-12-18T01:42:35.693Z,91.55
2022-12-18T01:43:54.516Z,91.54
2022-12-18T01:45:07.454Z,91.83
2022-12-18T01:46:09.770Z,91.62
2022-12-18T01:47:21.154Z,91.68
2022-12-18T01:48:22.850Z,91.61
2022-12-18T01:49:24.571Z,91.66
2022-12-18T01:50:35.264Z,91.47
2022-12-18T01:51:37.224Z,91.41
2022-12-18T01:52:41.968Z,91.34
2022-12-18T01:53:45.953Z,91.00
2022-12-18T01:54:50.221Z,90.88
2022-12-18T01:55:57.277Z,90.86
2022-12-18T01:56:59.131Z,90.59
2022-12-18T01:58:01.987Z,90.56
2022-12-18T01:59:07.813Z,90.40
2022-12-18T02:00:16.972Z,90.25
2022-12-18T02:01:19.680Z,90.56
2022-12-18T02:02:22.344Z,90.43
2022-12-18T02:03:24.154Z,90.20
2022-12-18T02:04:27.861Z,90.14
2022-12-18T02:05:32.094Z,90.25
2022-12-18T02:06:41.758Z,90.08
2022-12-18T02:08:24.981Z,90.02
2022-12-18T02:09:37.021Z,89.98
2022-12-18T02:10:53.327Z,89.93
2022-12-18T02:12:24.019Z,89.91
2022-12-18T02:13:41.921Z,90.23
2022-12-18T02:15:08.115Z,90.19
2022-12-18T02:16:15.461Z,90.08
2022-12-18T02:17:46.467Z,89.82
2022-12-18T02:18:57.484Z,90.03
2022-12-18T02:20:21.154Z,89.65
2022-12-18T02:21:33.494Z,89.33
2022-12-18T02:22:38.244Z,89.51
2022-12-18T02:23:53.494Z,89.72
2022-12-18T02:24:57.906Z,89.68
2022-12-18T02:26:06.076Z,89.98
2022-12-18T02:27:10.168Z,89.72
2022-12-18T02:28:16.704Z,89.56
2022-12-18T02:30:45.365Z,89.30
2022-12-18T02:31:52.954Z,89.53
2022-12-18T02:32:56.897Z,89.69
2022-12-18T02:34:03.288Z,89.65
2022-12-18T02:35:09.416Z,89.78
2022-12-18T02:36:14.104Z,89.58
2022-12-18T02:37:19.672Z,89.60
2022-12-18T02:38:21.824Z,89.48
2022-12-18T02:39:26.844Z,89.52
2022-12-18T02:40:29.440Z,89.71
2022-12-18T02:41:32.091Z,89.73
2022-12-18T02:42:33.996Z,89.79
2022-12-18T02:43:35.923Z,89.75
2022-12-18T02:44:47.089Z,89.87
2022-12-18T02:45:53.866Z,89.91
2022-12-18T02:46:55.748Z,89.51
2022-12-18T02:47:57.600Z,89.56
2022-12-18T02:49:25.210Z,89.51
2022-12-18T02:50:45.607Z,89.68
2022-12-18T02:52:18.214Z,89.60
2022-12-18T02:53:34.958Z,89.73
2022-12-18T02:55:09.234Z,89.75
2022-12-18T02:56:16.919Z,90.12
2022-12-18T02:57:34.640Z,89.74
2022-12-18T02:59:24.581Z,89.65
2022-12-18T03:00:31.081Z,89.49
2022-12-18T03:01:40.322Z,89.72
2022-12-18T03:03:04.412Z,89.86
2022-12-18T03:04:13.977Z,89.95
2022-12-18T03:05:21.360Z,89.58
2022-12-18T03:06:33.250Z,89.73
2022-12-18T03:07:54.235Z,89.53
2022-12-18T03:09:03.327Z,89.67
2022-12-18T03:10:08.996Z,89.53
2022-12-18T03:11:13.771Z,89.91
2022-12-18T03:12:25.891Z,89.72
2022-12-18T03:13:42.291Z,89.98
2022-12-18T03:14:46.604Z,89.78
2022-12-18T03:15:54.191Z,89.55
2022-12-18T03:17:00.053Z,89.54
2022-12-18T03:18:14.702Z,89.48
2022-12-18T03:19:21.413Z,89.32
2022-12-18T03:20:27.065Z,89.18
2022-12-18T03:21:36.663Z,89.40
2022-12-18T03:22:39.550Z,89.35
2022-12-18T03:23:49.131Z,89.12
2022-12-18T03:24:53.196Z,89.12
2022-12-18T03:26:04.503Z,89.14
2022-12-18T03:27:15.900Z,89.05
2022-12-18T03:28:22.705Z,88.92
2022-12-18T03:29:36.748Z,89.20
2022-12-18T03:30:41.355Z,89.27
2022-12-18T03:31:49.053Z,89.09
2022-12-18T03:33:17.659Z,89.06
2022-12-18T03:34:28.012Z,88.86
2022-12-18T03:35:38.693Z,89.00
2022-12-18T03:36:40.703Z,89.12
2022-12-18T03:37:42.508Z,89.11
2022-12-18T03:38:44.304Z,89.26
2022-12-18T03:39:45.993Z,89.32
2022-12-18T03:41:18.080Z,89.50
2022-12-18T03:42:31.274Z,89.31
2022-12-18T03:43:58.022Z,89.02
2022-12-18T03:45:35.693Z,89.35
2022-12-18T03:46:51.699Z,89.20
2022-12-18T03:48:30.764Z,89.20
2022-12-18T03:49:32.478Z,88.91
2022-12-18T03:50:46.562Z,88.64
2022-12-18T03:52:03.965Z,88.44
2022-12-18T03:53:23.636Z,88.28
2022-12-18T03:54:27.359Z,88.02
2022-12-18T03:55:33.641Z,88.10
2022-12-18T03:56:43.172Z,87.85
2022-12-18T03:57:46.870Z,88.01
2022-12-18T03:58:50.934Z,87.81
2022-12-18T03:59:58.675Z,87.89
2022-12-18T04:01:03.930Z,87.65
2022-12-18T04:02:08.027Z,87.86
2022-12-18T04:03:12.082Z,88.07
2022-12-18T04:04:16.343Z,88.10
2022-12-18T04:05:18.815Z,88.28
2022-12-18T04:06:21.334Z,88.03
2022-12-18T04:07:24.444Z,88.16
2022-12-18T04:08:27.488Z,88.25
2022-12-18T04:09:31.196Z,88.22
2022-12-18T04:10:33.068Z,88.03
2022-12-18T04:11:34.907Z,88.21
2022-12-18T04:12:38.868Z,87.94
2022-12-18T04:13:41.243Z,88.12
2022-12-18T04:14:43.270Z,88.18
2022-12-18T04:15:45.061Z,87.92
2022-12-18T04:16:46.904Z,88.09
2022-12-18T04:17:50.310Z,88.09
2022-12-18T04:18:52.280Z,88.38
2022-12-18T04:19:53.961Z,87.96
2022-12-18T04:20:55.803Z,87.93
2022-12-18T04:21:57.585Z,87.88
2022-12-18T04:22:59.369Z,88.03
2022-12-18T04:24:01.084Z,88.01
2022-12-18T04:25:02.819Z,87.97
2022-12-18T04:26:04.715Z,87.71
2022-12-18T04:27:07.844Z,87.69
2022-12-18T04:28:09.479Z,87.77
2022-12-18T04:29:11.191Z,87.92
2022-12-18T04:30:13.116Z,88.09
2022-12-18T04:31:15.051Z,88.14
2022-12-18T04:32:16.798Z,88.32
2022-12-18T04:33:19.121Z,88.00
2022-12-18T04:34:21.564Z,87.97
2022-12-18T04:35:23.296Z,87.77
2022-12-18T04:36:25.012Z,87.82
2022-12-18T04:37:26.651Z,87.90
2022-12-18T04:38:28.419Z,88.24
2022-12-18T04:39:30.189Z,87.46
2022-12-18T04:40:31.884Z,87.18
2022-12-18T04:41:33.700Z,87.02
2022-12-18T04:42:35.537Z,86.98
2022-12-18T04:43:37.914Z,87.13
2022-12-18T04:44:39.854Z,86.96
2022-12-18T04:45:41.597Z,86.88
2022-12-18T04:46:43.645Z,86.91
2022-12-18T04:47:45.369Z,86.84
2022-12-18T04:48:47.936Z,87.03
2022-12-18T04:49:49.663Z,86.87
2022-12-18T04:50:51.379Z,86.89
2022-12-18T04:51:53.083Z,86.58
2022-12-18T04:52:55.822Z,86.65
2022-12-18T04:53:57.856Z,86.80
2022-12-18T04:54:59.582Z,86.55
2022-12-18T04:56:09.833Z,87.00
2022-12-18T04:57:11.500Z,87.25
2022-12-18T04:58:13.271Z,87.47
2022-12-18T04:59:14.994Z,87.19
2022-12-18T05:00:16.967Z,87.17
2022-12-18T05:01:20.013Z,87.23
2022-12-18T05:02:21.938Z,86.44
2022-12-18T05:03:23.801Z,86.32
2022-12-18T05:04:25.600Z,86.47
2022-12-18T05:05:27.449Z,86.13
2022-12-18T05:06:29.170Z,86.17
2022-12-18T05:07:30.985Z,85.89
2022-12-18T05:08:33.408Z,85.80
2022-12-18T05:09:35.127Z,85.57
2022-12-18T05:10:38.467Z,85.69
2022-12-18T05:11:40.510Z,85.53
2022-12-18T05:12:42.224Z,85.58
2022-12-18T05:13:45.577Z,85.49
2022-12-18T05:14:47.417Z,85.58
2022-12-18T05:15:53.991Z,85.55
2022-12-18T05:17:00.677Z,85.53
2022-12-18T05:18:04.235Z,85.73
2022-12-18T05:19:05.896Z,85.70
2022-12-18T05:20:08.002Z,85.59
2022-12-18T05:21:09.989Z,85.51
2022-12-18T05:22:11.754Z,85.39
2022-12-18T05:23:13.446Z,85.48
2022-12-18T05:24:15.272Z,85.47
2022-12-18T05:25:17.987Z,85.39
2022-12-18T05:26:19.945Z,85.25
2022-12-18T05:27:21.626Z,85.08
2022-12-18T05:28:24.676Z,85.20
2022-12-18T05:29:26.420Z,85.28
2022-12-18T05:30:28.132Z,85.09
2022-12-18T05:31:32.397Z,85.05
2022-12-18T05:32:37.913Z,84.87
2022-12-18T05:33:39.931Z,84.90
2022-12-18T05:34:41.891Z,85.09
2022-12-18T05:35:44.904Z,85.09
2022-12-18T05:36:46.627Z,85.12
2022-12-18T05:37:48.371Z,85.23
2022-12-18T05:38:50.250Z,85.08
2022-12-18T05:39:51.912Z,84.91
2022-12-18T05:40:54.857Z,84.74
2022-12-18T05:41:56.620Z,84.86
2022-12-18T05:42:58.337Z,85.04
2022-12-18T05:44:00.353Z,85.05
2022-12-18T05:45:02.099Z,85.25
2022-12-18T05:46:17.690Z,85.35
2022-12-18T05:47:19.393Z,85.26
2022-12-18T05:48:21.909Z,84.93
2022-12-18T05:49:23.598Z,85.01
2022-12-18T05:50:25.277Z,85.04
2022-12-18T05:51:27.600Z,84.93
2022-12-18T05:52:29.326Z,84.74
2022-12-18T05:53:31.036Z,84.73
2022-12-18T05:54:32.817Z,84.60
2022-12-18T05:55:40.387Z,84.47
2022-12-18T05:56:48.393Z,84.19
2022-12-18T05:57:50.428Z,84.61
2022-12-18T05:58:54.239Z,84.44
2022-12-18T05:59:55.958Z,85.00
2022-12-18T06:00:58.396Z,84.88
2022-12-18T06:02:00.298Z,84.81
2022-12-18T06:03:03.366Z,85.06
2022-12-18T06:04:05.359Z,84.94
2022-12-18T06:05:07.743Z,84.45
2022-12-18T06:06:15.276Z,84.18
2022-12-18T06:07:16.987Z,84.30
2022-12-18T06:08:18.623Z,84.48
2022-12-18T06:09:20.335Z,84.65
2022-12-18T06:10:22.034Z,85.03
2022-12-18T06:11:26.559Z,84.55
2022-12-18T06:12:28.203Z,84.42
2022-12-18T06:13:29.932Z,84.65
2022-12-18T06:14:31.619Z,84.74
2022-12-18T06:15:33.943Z,84.13
2022-12-18T06:16:35.641Z,83.97
2022-12-18T06:17:37.752Z,84.07
2022-12-18T06:18:39.767Z,83.84
2022-12-18T06:19:41.420Z,83.70
2022-12-18T06:20:43.115Z,83.92
2022-12-18T06:21:44.807Z,83.96
2022-12-18T06:22:46.574Z,83.62
2022-12-18T06:23:48.480Z,83.23
2022-12-18T06:24:50.133Z,83.60
2022-12-18T06:25:52.259Z,83.50
2022-12-18T06:26:53.976Z,83.33
2022-12-18T06:27:55.731Z,83.27
2022-12-18T06:28:57.484Z,83.90
2022-12-18T06:29:59.663Z,83.85
2022-12-18T06:31:01.508Z,83.93
2022-12-18T06:32:03.267Z,84.03
2022-12-18T06:33:05.177Z,84.10
2022-12-18T06:34:06.906Z,83.84
2022-12-18T06:35:09.075Z,83.37
2022-12-18T06:36:13.100Z,83.55
2022-12-18T06:37:14.833Z,83.58
2022-12-18T06:38:16.566Z,83.67
2022-12-18T06:39:18.319Z,83.70
2022-12-18T06:40:20.088Z,83.26
2022-12-18T06:41:22.415Z,83.19
2022-12-18T06:42:25.026Z,82.82
2022-12-18T06:43:26.833Z,82.77
2022-12-18T06:44:28.560Z,83.04
2022-12-18T06:45:30.316Z,83.04
2022-12-18T06:46:32.074Z,83.18
2022-12-18T06:47:33.769Z,83.32
2022-12-18T06:48:36.153Z,83.33
2022-12-18T06:49:37.866Z,83.90
2022-12-18T06:50:43.557Z,83.41
2022-12-18T06:51:45.281Z,83.20
2022-12-18T06:52:47.423Z,83.44
2022-12-18T06:53:49.440Z,83.28
2022-12-18T06:54:51.100Z,83.27
2022-12-18T06:55:52.791Z,83.16
2022-12-18T06:56:58.656Z,82.94
2022-12-18T06:58:00.362Z,83.18
2022-12-18T06:59:02.223Z,83.22
2022-12-18T07:00:06.826Z,83.58
2022-12-18T07:01:11.907Z,83.27
2022-12-18T07:02:13.972Z,83.69
2022-12-18T07:03:15.764Z,83.73
2022-12-18T07:04:17.549Z,84.51
2022-12-18T07:05:19.307Z,84.69
2022-12-18T07:06:23.275Z,84.46
2022-12-18T07:07:25.171Z,84.73
2022-12-18T07:08:27.140Z,84.72
2022-12-18T07:09:31.954Z,84.77
2022-12-18T07:10:33.758Z,84.56
2022-12-18T07:11:35.414Z,84.68
2022-12-18T07:12:37.184Z,85.11
2022-12-18T07:13:39.657Z,85.60
2022-12-18T07:14:41.551Z,84.68
2022-12-18T07:15:44.264Z,84.60
2022-12-18T07:16:47.277Z,84.10
2022-12-18T07:17:49.047Z,83.36
2022-12-18T07:18:50.948Z,83.04
2022-12-18T07:19:52.745Z,82.49
2022-12-18T07:20:54.437Z,82.38
2022-12-18T07:21:56.180Z,82.70
2022-12-18T07:22:57.847Z,82.44
2022-12-18T07:23:59.574Z,82.67
2022-12-18T07:25:01.367Z,83.05
2022-12-18T07:26:14.067Z,82.60
2022-12-18T07:27:15.792Z,82.41
2022-12-18T07:28:17.793Z,82.19
2022-12-18T07:29:19.924Z,82.00
2022-12-18T07:30:21.719Z,81.95
2022-12-18T07:31:23.537Z,82.44
2022-12-18T07:32:25.338Z,82.40
2022-12-18T07:33:27.172Z,82.36
2022-12-18T07:34:29.096Z,82.54
2022-12-18T07:35:30.854Z,82.80
2022-12-18T07:36:32.561Z,82.91
2022-12-18T07:37:34.247Z,82.80
2022-12-18T07:38:36.757Z,82.77
2022-12-18T07:39:38.532Z,82.77
2022-12-18T07:40:40.347Z,82.53
2022-12-18T07:41:46.605Z,82.73
2022-12-18T07:42:49.005Z,83.00
2022-12-18T07:43:50.832Z,82.67
2022-12-18T07:44:53.048Z,82.50
2022-12-18T07:45:54.912Z,82.34
2022-12-18T07:46:56.673Z,81.88
2022-12-18T07:47:58.432Z,81.53
2022-12-18T07:49:00.124Z,81.76
2022-12-18T07:50:01.890Z,82.14
2022-12-18T07:51:06.619Z,82.55
2022-12-18T07:52:08.300Z,82.33
2022-12-18T07:53:10.011Z,82.34
2022-12-18T07:54:11.713Z,82.67
2022-12-18T07:55:13.567Z,82.75
2022-12-18T07:56:31.787Z,82.84
2022-12-18T07:57:49.984Z,82.66
2022-12-18T07:58:52.737Z,82.71
2022-12-18T07:59:54.398Z,82.21
2022-12-18T08:01:07.098Z,82.37
2022-12-18T08:02:09.062Z,82.16
2022-12-18T08:03:10.977Z,82.06
2022-12-18T08:04:13.990Z,82.15
2022-12-18T08:05:15.912Z,82.37
2022-12-18T08:06:17.669Z,82.28
2022-12-18T08:07:19.400Z,82.53
2022-12-18T08:08:21.178Z,82.20
2022-12-18T08:09:22.828Z,81.83
2022-12-18T08:10:24.537Z,81.75
2022-12-18T08:11:28.111Z,81.84
2022-12-18T08:12:29.803Z,81.68
2022-12-18T08:13:31.706Z,81.92
2022-12-18T08:14:33.420Z,82.05
2022-12-18T08:15:35.225Z,82.05
2022-12-18T08:16:37.052Z,82.17
2022-12-18T08:17:38.748Z,82.04
2022-12-18T08:18:40.442Z,81.65
2022-12-18T08:19:42.102Z,81.49
2022-12-18T08:20:43.905Z,81.76
2022-12-18T08:21:45.644Z,81.81
2022-12-18T08:22:47.415Z,81.64
2022-12-18T08:23:51.148Z,81.19
2022-12-18T08:24:53.297Z,81.47
2022-12-18T08:25:54.991Z,81.67
2022-12-18T08:27:27.881Z,81.38
2022-12-18T08:28:18.920Z,81.50
2022-12-18T08:29:21.793Z,81.72
2022-12-18T08:30:23.613Z,81.88
2022-12-18T08:31:27.687Z,81.68
2022-12-18T08:32:30.066Z,81.91
2022-12-18T08:33:32.187Z,81.42
2022-12-18T08:34:33.999Z,81.34
2022-12-18T08:35:45.435Z,81.92
2022-12-18T08:36:47.640Z,81.79
2022-12-18T08:37:49.410Z,81.34
2022-12-18T08:38:51.189Z,81.04
2022-12-18T08:39:52.838Z,81.01
2022-12-18T08:41:06.236Z,81.20
2022-12-18T08:42:10.243Z,81.26
2022-12-18T08:43:12.361Z,81.14
2022-12-18T08:44:14.138Z,80.88
2022-12-18T08:45:16.041Z,80.39
2022-12-18T08:46:19.878Z,80.38
2022-12-18T08:47:21.765Z,80.76
2022-12-18T08:48:23.551Z,80.87
2022-12-18T08:49:25.187Z,80.45
2022-12-18T08:50:26.919Z,80.46
2022-12-18T08:51:28.623Z,80.40
2022-12-18T08:52:33.275Z,80.77
2022-12-18T08:53:35.900Z,80.04
2022-12-18T08:54:37.799Z,80.04
2022-12-18T08:55:39.468Z,80.17
2022-12-18T08:56:41.200Z,79.89
2022-12-18T08:57:42.948Z,79.86
2022-12-18T08:58:44.837Z,79.88
2022-12-18T08:59:46.543Z,80.24
2022-12-18T09:00:48.292Z,80.51
2022-12-18T09:01:50.169Z,80.14
2022-12-18T09:02:51.999Z,79.85
2022-12-18T09:03:53.752Z,79.57
2022-12-18T09:04:57.504Z,79.72
2022-12-18T09:06:00.032Z,79.95
2022-12-18T09:07:01.727Z,79.79
2022-12-18T09:08:03.491Z,80.26
2022-12-18T09:09:06.152Z,80.56
2022-12-18T09:10:08.290Z,80.39
2022-12-18T09:11:25.013Z,80.63
2022-12-18T09:12:26.896Z,81.07
2022-12-18T09:13:28.671Z,81.18
2022-12-18T09:14:30.370Z,80.54
2022-12-18T09:15:32.052Z,80.88
2022-12-18T09:16:34.213Z,80.73
2022-12-18T09:17:36.404Z,80.29
2022-12-18T09:18:38.468Z,79.88
2022-12-18T09:19:40.613Z,79.67
2022-12-18T09:20:42.509Z,79.32
2022-12-18T09:21:47.958Z,79.27
2022-12-18T09:22:50.196Z,79.61
2022-12-18T09:23:52.730Z,79.71
2022-12-18T09:24:54.416Z,79.66
2022-12-18T09:26:00.580Z,79.83
2022-12-18T09:27:02.478Z,80.01
2022-12-18T09:28:12.978Z,79.64
2022-12-18T09:29:16.787Z,78.74
2022-12-18T09:30:20.800Z,79.20
2022-12-18T09:31:24.851Z,79.12
2022-12-18T09:32:26.819Z,79.32
2022-12-18T09:33:28.473Z,79.72
2022-12-18T09:34:30.158Z,79.83
2022-12-18T09:35:31.921Z,79.99
2022-12-18T09:36:34.143Z,80.23
2022-12-18T09:37:35.862Z,80.26
2022-12-18T09:38:37.949Z,80.22
2022-12-18T09:39:39.829Z,80.64
2022-12-18T09:40:46.811Z,80.46
2022-12-18T09:41:53.633Z,79.97
2022-12-18T09:43:00.905Z,80.31
2022-12-18T09:44:21.142Z,79.78
2022-12-18T09:45:24.434Z,79.88
2022-12-18T09:46:36.476Z,79.69
2022-12-18T09:47:40.315Z,79.54
2022-12-18T09:48:47.300Z,80.10
2022-12-18T09:49:55.025Z,79.15
2022-12-18T09:51:03.828Z,79.05
2022-12-18T09:52:38.552Z,79.33
2022-12-18T09:53:44.631Z,79.10
2022-12-18T09:54:56.112Z,79.36
2022-12-18T09:55:58.551Z,79.63
2022-12-18T09:57:00.517Z,79.15
2022-12-18T09:58:10.641Z,79.90
2022-12-18T09:59:35.293Z,79.83
2022-12-18T10:00:37.192Z,80.23
2022-12-18T10:01:44.124Z,80.22
2022-12-18T10:02:47.442Z,79.81
2022-12-18T10:03:49.886Z,79.03
2022-12-18T10:05:06.320Z,78.85
2022-12-18T10:06:15.234Z,79.05
2022-12-18T10:07:36.709Z,79.26
2022-12-18T10:08:53.175Z,78.87
2022-12-18T10:10:09.570Z,78.64
2022-12-18T10:11:35.956Z,78.88
2022-12-18T10:12:53.385Z,79.26
2022-12-18T10:14:10.097Z,79.16
2022-12-18T10:15:34.262Z,79.87
2022-12-18T10:16:41.660Z,78.67
2022-12-18T10:17:49.942Z,78.46
2022-12-18T10:19:12.648Z,78.22
2022-12-18T10:20:36.157Z,78.80
2022-12-18T10:21:53.711Z,79.74
2022-12-18T10:23:10.275Z,80.79
2022-12-18T10:24:19.355Z,80.70
2022-12-18T10:25:26.234Z,80.77
2022-12-18T10:26:27.934Z,80.83
2022-12-18T10:27:30.099Z,80.06
2022-12-18T10:28:36.574Z,80.20
2022-12-18T10:29:39.046Z,80.42
2022-12-18T10:30:42.752Z,80.82
2022-12-18T10:31:44.648Z,80.33
2022-12-18T10:32:46.579Z,80.06
2022-12-18T10:33:48.604Z,79.19
2022-12-18T10:34:58.315Z,79.52
2022-12-18T10:36:02.047Z,79.80
2022-12-18T10:37:12.874Z,79.51
2022-12-18T10:38:17.272Z,79.14
2022-12-18T10:39:23.445Z,79.85
2022-12-18T10:40:25.311Z,80.11
2022-12-18T10:41:27.905Z,79.52
2022-12-18T10:42:31.351Z,80.23
2022-12-18T10:43:38.459Z,80.62
2022-12-18T10:44:40.186Z,80.44
2022-12-18T10:45:43.195Z,80.93
2022-12-18T10:46:51.388Z,79.61
2022-12-18T10:47:53.578Z,80.68
2022-12-18T10:48:57.010Z,80.72
2022-12-18T10:49:58.712Z,80.56
2022-12-18T10:51:10.920Z,80.59
2022-12-18T10:52:25.329Z,80.82
2022-12-18T10:53:30.195Z,80.78
2022-12-18T10:54:33.745Z,80.65
2022-12-18T10:55:38.766Z,80.71
2022-12-18T10:56:40.813Z,80.32
2022-12-18T10:57:44.271Z,80.81
2022-12-18T10:58:58.571Z,81.08
2022-12-18T11:00:14.322Z,80.36
2022-12-18T11:01:18.755Z,80.52
2022-12-18T11:02:50.578Z,79.96
2022-12-18T11:03:59.024Z,79.77
2022-12-18T11:05:23.325Z,80.11
2022-12-18T11:06:26.638Z,79.95
2022-12-18T11:07:49.508Z,79.49
2022-12-18T11:09:13.108Z,79.40
2022-12-18T11:10:18.948Z,79.90
2022-12-18T11:11:23.456Z,79.75
2022-12-18T11:12:25.209Z,79.86
2022-12-18T11:13:30.131Z,79.10
2022-12-18T11:14:34.490Z,79.09
2022-12-18T11:15:36.842Z,79.30
2022-12-18T11:17:03.173Z,79.25
2022-12-18T11:18:18.093Z,79.42
2022-12-18T11:19:32.613Z,79.47
2022-12-18T11:20:36.856Z,79.84
2022-12-18T11:21:43.507Z,79.35
2022-12-18T11:22:57.678Z,79.18
2022-12-18T11:23:59.832Z,78.68
2022-12-18T11:26:36.928Z,77.64
2022-12-18T11:27:40.457Z,77.53
2022-12-18T11:28:47.462Z,78.20
2022-12-18T11:29:52.039Z,78.53
2022-12-18T11:31:21.528Z,78.83
2022-12-18T11:32:33.375Z,77.95
2022-12-18T11:33:35.836Z,78.68
2022-12-18T11:34:38.004Z,78.83
2022-12-18T11:36:00.475Z,78.83
2022-12-18T11:37:04.590Z,78.41
2022-12-18T11:38:36.979Z,78.84
2022-12-18T11:39:46.151Z,78.60
2022-12-18T11:41:04.129Z,77.95
2022-12-18T11:42:13.757Z,78.73
2022-12-18T11:43:26.106Z,79.02
2022-12-18T11:44:54.072Z,79.72
2022-12-18T11:46:26.213Z,79.47
2022-12-18T11:47:45.245Z,79.27
2022-12-18T11:48:58.233Z,79.39
2022-12-18T11:50:04.734Z,79.32
2022-12-18T11:51:13.908Z,78.63
2022-12-18T11:52:21.013Z,78.63
2022-12-18T11:53:23.554Z,78.36
2022-12-18T11:54:25.258Z,77.95
2022-12-18T11:55:40.379Z,77.98
2022-12-18T11:57:05.798Z,78.55
2022-12-18T11:58:31.589Z,78.48
2022-12-18T11:59:47.848Z,77.77
2022-12-18T12:01:02.776Z,78.01
2022-12-18T12:02:26.259Z,76.75
2022-12-18T12:04:16.078Z,77.37
2022-12-18T12:05:39.497Z,77.70
2022-12-18T12:07:18.968Z,76.77
2022-12-18T12:08:39.337Z,76.89
2022-12-18T12:10:01.863Z,77.02
2022-12-18T12:11:28.515Z,77.60
2022-12-18T12:12:35.981Z,75.96
2022-12-18T12:14:00.375Z,76.76
2022-12-18T12:15:40.213Z,76.35
2022-12-18T12:16:58.369Z,75.45
2022-12-18T12:18:19.891Z,75.31
2022-12-18T12:19:44.685Z,74.69
2022-12-18T12:21:01.571Z,75.47
2022-12-18T12:22:19.580Z,75.31
2022-12-18T12:23:50.770Z,73.30
2022-12-18T12:25:11.100Z,73.39
2022-12-18T12:26:34.613Z,73.91
2022-12-18T12:27:54.599Z,73.86
2022-12-18T12:29:20.959Z,73.88
2022-12-18T12:30:41.757Z,73.52
2022-12-18T12:31:57.669Z,73.58
2022-12-18T12:33:02.039Z,73.25
2022-12-18T12:34:36.346Z,74.20
2022-12-18T12:36:10.852Z,73.61
2022-12-18T12:37:38.455Z,73.89
2022-12-18T12:38:51.934Z,73.04
2022-12-18T12:39:55.928Z,73.01
2022-12-18T12:41:06.693Z,72.48
2022-12-18T12:42:20.021Z,73.40
2022-12-18T12:43:25.499Z,73.25
2022-12-18T12:44:40.527Z,72.30
2022-12-18T12:46:08.401Z,72.95
2022-12-18T12:47:29.516Z,74.31
2022-12-18T12:48:52.034Z,73.53
2022-12-18T12:49:55.446Z,73.42
2022-12-18T12:50:58.097Z,73.75
2022-12-18T12:52:11.958Z,73.47
2022-12-18T12:53:35.657Z,72.82
2022-12-18T12:54:38.381Z,73.92
2022-12-18T12:55:42.561Z,72.79
2022-12-18T12:57:09.982Z,72.72
2022-12-18T12:58:30.408Z,72.37
2022-12-18T12:59:58.803Z,73.28
2022-12-18T13:01:16.193Z,73.67
2022-12-18T13:02:47.833Z,72.97
2022-12-18T13:03:49.886Z,73.70
2022-12-18T13:05:18.466Z,73.24
2022-12-18T13:06:50.959Z,72.28
2022-12-18T13:07:59.365Z,73.67
2022-12-18T13:09:02.063Z,74.42
2022-12-18T13:10:17.217Z,73.64
2022-12-18T13:11:37.587Z,73.67
2022-12-18T13:12:53.082Z,73.72
2022-12-18T13:13:57.098Z,73.67
2022-12-18T13:15:39.860Z,74.02
2022-12-18T13:16:41.894Z,74.38
2022-12-18T13:17:43.727Z,74.78
2022-12-18T13:19:02.015Z,75.27
2022-12-18T13:20:03.986Z,75.07
2022-12-18T13:21:22.429Z,74.75
2022-12-18T13:22:31.420Z,74.57
2022-12-18T13:23:35.271Z,74.65
2022-12-18T13:24:37.427Z,74.73
2022-12-18T13:25:39.634Z,74.61
2022-12-18T13:26:41.298Z,74.65
2022-12-18T13:27:46.106Z,75.27
2022-12-18T13:28:48.891Z,74.98
2022-12-18T13:29:50.624Z,74.97
2022-12-18T13:30:58.736Z,74.84
2022-12-18T13:32:01.858Z,75.15
2022-12-18T13:33:15.909Z,74.80
2022-12-18T13:34:27.403Z,75.02
2022-12-18T13:35:40.159Z,75.19
2022-12-18T13:36:41.900Z,75.47
2022-12-18T13:37:52.235Z,75.96
2022-12-18T13:39:23.872Z,75.89
2022-12-18T13:40:48.579Z,76.28
2022-12-18T13:41:55.210Z,75.79
2022-12-18T13:42:56.936Z,75.07
2022-12-18T13:44:41.851Z,75.61
2022-12-18T13:45:47.651Z,74.79
2022-12-18T13:46:51.971Z,74.42
2022-12-18T13:47:54.616Z,75.32
2022-12-18T13:49:42.496Z,75.30
2022-12-18T13:50:49.201Z,74.54
2022-12-18T13:51:54.754Z,73.98
2022-12-18T13:52:56.490Z,73.56
2022-12-18T13:54:07.105Z,73.97
2022-12-18T13:55:17.334Z,73.79
2022-12-18T13:56:24.798Z,73.11
2022-12-18T13:57:28.718Z,73.99
2022-12-18T13:58:31.156Z,73.86
2022-12-18T13:59:38.311Z,73.89
2022-12-18T14:00:44.704Z,73.74
2022-12-18T14:01:55.198Z,73.71
2022-12-18T14:02:59.085Z,74.13
2022-12-18T14:04:19.808Z,73.92
2022-12-18T14:05:38.642Z,74.05
2022-12-18T14:06:42.676Z,73.60
2022-12-18T14:07:48.983Z,73.16
2022-12-18T14:08:55.376Z,73.88
2022-12-18T14:10:25.993Z,72.96
2022-12-18T14:11:23.957Z,72.90
2022-12-18T14:12:33.328Z,72.74
2022-12-18T14:13:43.001Z,72.98
2022-12-18T14:14:48.058Z,73.62
2022-12-18T14:15:51.683Z,73.45
2022-12-18T14:16:53.705Z,73.20
2022-12-18T14:18:13.469Z,72.86
2022-12-18T14:19:18.725Z,73.33
2022-12-18T14:20:21.722Z,73.33
2022-12-18T14:21:27.452Z,73.27
2022-12-18T14:22:30.102Z,73.02
2022-12-18T14:23:43.031Z,72.32